Airport View

Enter AWOS ICAO identifier for current METAR.

ex. KFNL

KDMA 251558Z AUTO 20005KT 10SM BKN180 BKN200 24/05 A2991 RMK AO2 SLP091 T02350054 FZRANO $

25 Oct 2020 16:14

Other Area AWOS: KTUS - KRYN - KAVQ - KFHU

TAF KDMA 251411Z 2514/2620 VRB06KT 9999 FEW120 SCT180 QNH2988INS BECMG 2517/2518 23015G28KT 9999 SCT110 SCT180 520009 QNH2973INS TEMPO 2521/2523 24020G30KT BECMG 2522/2523 24015G28KT 9999 VCSH BKN110 520009 QNH2973INS TEMPO 2523/2524 24020G30KT BECMG 2601/2602 21009KT 9999 NSW BKN110 QNH2974INS BECMG 2607/2608 20009KT 9999 BKN060 QNH2980INS TX29/2520Z TN15/2612Z